Time,TemperatureF,DewpointF,PressureIn,WindDirection,WindDirectionDegrees,WindSpeedMPH,WindSpeedGustMPH,Humidity,HourlyPrecipIn,Conditions,Clouds,dailyrainin,SoftwareType,DateUTC
2013-03-04 00:09:00,37.4,27.0,30.09,SE,142,0.0,0.0,67,0.00,,,0.00,weatherlink.com 1.10,2013-03-04 06:09:00,
2013-03-04 00:24:00,37.2,27.0,30.08,SE,142,0.0,1.0,66,0.00,,,0.00,weatherlink.com 1.10,2013-03-04 06:24:00,
2013-03-04 00:39:00,36.6,26.0,30.07,SE,142,0.0,1.0,66,0.00,,,0.00,weatherlink.com 1.10,2013-03-04 06:39:00,
2013-03-04 00:54:00,36.1,26.0,30.07,SE,142,0.0,1.0,68,0.00,,,0.00,weatherlink.com 1.10,2013-03-04 06:54:00,
2013-03-04 01:09:00,36.2,27.0,30.07,NE,51,0.0,1.0,68,0.00,,,0.00,weatherlink.com 1.10,2013-03-04 07:09:00,
2013-03-04 01:24:00,36.1,26.0,30.07,NE,51,0.0,0.0,68,0.00,,,0.00,weatherlink.com 1.10,2013-03-04 07:24:00,
2013-03-04 01:39:00,36.6,27.0,30.06,South,181,0.0,1.0,67,0.00,,,0.00,weatherlink.com 1.10,2013-03-04 07:39:00,
2013-03-04 01:54:00,37.3,26.0,30.05,SSE,160,0.0,2.0,65,0.00,,,0.00,weatherlink.com 1.10,2013-03-04 07:54:00,
2013-03-04 02:09:00,38.2,26.0,30.05,SSE,157,0.0,3.0,63,0.00,,,0.00,weatherlink.com 1.10,2013-03-04 08:09:00,
2013-03-04 02:24:00,38.6,26.0,30.04,SSW,213,0.0,4.0,62,0.00,,,0.00,weatherlink.com 1.10,2013-03-04 08:24:00,
2013-03-04 02:39:00,38.9,26.0,30.04,South,185,0.0,2.0,60,0.00,,,0.00,weatherlink.com 1.10,2013-03-04 08:39:00,
2013-03-04 02:54:00,39.2,26.0,30.03,SSE,160,1.0,3.0,59,0.00,,,0.00,weatherlink.com 1.10,2013-03-04 08:54:00,
2013-03-04 03:09:00,39.4,25.0,30.03,SE,131,0.0,8.0,57,0.00,,,0.00,weatherlink.com 1.10,2013-03-04 09:09:00,
2013-03-04 03:24:00,39.2,26.0,30.03,SSE,160,0.0,1.0,59,0.00,,,0.00,weatherlink.com 1.10,2013-03-04 09:24:00,
2013-03-04 03:39:00,38.8,25.0,30.02,SW,220,0.0,2.0,59,0.00,,,0.00,weatherlink.com 1.10,2013-03-04 09:39:00,
2013-03-04 03:54:00,38.9,25.0,30.02,SSE,163,1.0,2.0,58,0.00,,,0.00,weatherlink.com 1.10,2013-03-04 09:54:00,
2013-03-04 04:09:00,39.1,25.0,30.01,SSE,163,0.0,3.0,57,0.00,,,0.00,weatherlink.com 1.10,2013-03-04 10:09:00,
2013-03-04 04:24:00,39.3,25.0,30.01,WNW,288,0.0,5.0,56,0.00,,,0.00,weatherlink.com 1.10,2013-03-04 10:24:00,
2013-03-04 04:39:00,39.6,24.0,30.01,SSW,198,2.0,6.0,55,0.00,,,0.00,weatherlink.com 1.10,2013-03-04 10:39:00,
2013-03-04 04:54:00,39.7,25.0,30.01,NNW,336,0.0,2.0,55,0.00,,,0.00,weatherlink.com 1.10,2013-03-04 10:54:00,
2013-03-04 05:09:00,39.6,24.0,30.00,SSW,203,1.0,5.0,55,0.00,,,0.00,weatherlink.com 1.10,2013-03-04 11:09:00,
2013-03-04 05:24:00,39.9,24.0,29.99,ENE,60,2.0,3.0,54,0.00,,,0.00,weatherlink.com 1.10,2013-03-04 11:24:00,
2013-03-04 05:39:00,40.0,24.0,29.99,South,169,0.0,5.0,54,0.00,,,0.00,weatherlink.com 1.10,2013-03-04 11:39:00,
2013-03-04 05:54:00,40.2,25.0,29.99,NE,56,0.0,3.0,54,0.00,,,0.00,weatherlink.com 1.10,2013-03-04 11:54:00,
2013-03-04 06:10:00,40.6,25.0,29.99,SSW,211,2.0,4.0,55,0.00,,,0.00,weatherlink.com 1.10,2013-03-04 12:10:00,
2013-03-04 06:25:00,40.9,26.0,29.99,SSW,208,1.0,4.0,55,0.00,,,0.00,weatherlink.com 1.10,2013-03-04 12:25:00,
2013-03-04 06:40:00,40.8,26.0,29.99,SSE,155,1.0,4.0,55,0.00,,,0.00,weatherlink.com 1.10,2013-03-04 12:40:00,
2013-03-04 06:55:00,41.1,26.0,29.99,SSE,159,0.0,4.0,55,0.00,,,0.00,weatherlink.com 1.10,2013-03-04 12:55:00,
2013-03-04 07:10:00,40.7,26.0,30.00,NE,36,0.0,4.0,57,0.00,,,0.00,weatherlink.com 1.10,2013-03-04 13:10:00,
2013-03-04 07:25:00,40.7,27.0,30.00,SSW,206,0.0,6.0,58,0.00,,,0.00,weatherlink.com 1.10,2013-03-04 13:25:00,
2013-03-04 07:40:00,41.8,27.0,30.00,NW,325,0.0,5.0,56,0.00,,,0.00,weatherlink.com 1.10,2013-03-04 13:40:00,
2013-03-04 07:55:00,43.1,28.0,30.00,WSW,238,0.0,4.0,55,0.00,,,0.00,weatherlink.com 1.10,2013-03-04 13:55:00,
2013-03-04 08:10:00,44.4,29.0,29.99,SW,232,1.0,7.0,54,0.00,,,0.00,weatherlink.com 1.10,2013-03-04 14:10:00,
2013-03-04 08:25:00,45.6,28.0,30.00,SSE,165,0.0,3.0,51,0.00,,,0.00,weatherlink.com 1.10,2013-03-04 14:25:00,
2013-03-04 08:40:00,46.7,29.0,29.99,SSW,197,1.0,5.0,50,0.00,,,0.00,weatherlink.com 1.10,2013-03-04 14:40:00,
2013-03-04 08:55:00,48.4,30.0,29.98,SW,224,2.0,5.0,49,0.00,,,0.00,weatherlink.com 1.10,2013-03-04 14:55:00,
2013-03-04 09:10:00,49.7,29.0,29.98,SSW,196,1.0,3.0,45,0.00,,,0.00,weatherlink.com 1.10,2013-03-04 15:10:00,
2013-03-04 09:25:00,51.1,30.0,29.97,SW,234,2.0,4.0,44,0.00,,,0.00,weatherlink.com 1.10,2013-03-04 15:25:00,
2013-03-04 09:40:00,52.8,31.0,29.96,SSW,198,2.0,5.0,44,0.00,,,0.00,weatherlink.com 1.10,2013-03-04 15:40:00,
2013-03-04 09:55:00,54.4,32.0,29.95,NE,37,2.0,7.0,42,0.00,,,0.00,weatherlink.com 1.10,2013-03-04 15:55:00,
2013-03-04 10:10:00,55.5,31.0,29.93,SSW,203,4.0,5.0,40,0.00,,,0.00,weatherlink.com 1.10,2013-03-04 16:10:00,
2013-03-04 10:25:00,56.6,32.0,29.92,WNW,298,1.0,7.0,39,0.00,,,0.00,weatherlink.com 1.10,2013-03-04 16:25:00,
2013-03-04 10:40:00,58.4,33.0,29.91,SSE,166,3.0,7.0,38,0.00,,,0.00,weatherlink.com 1.10,2013-03-04 16:40:00,
2013-03-04 10:55:00,58.5,32.0,29.91,NW,325,3.0,6.0,37,0.00,,,0.00,weatherlink.com 1.10,2013-03-04 16:55:00,
2013-03-04 11:11:00,60.0,32.0,29.90,SSE,151,1.0,7.0,35,0.00,,,0.00,weatherlink.com 1.10,2013-03-04 17:11:00,
2013-03-04 11:26:00,61.8,32.0,29.88,NNE,30,3.0,11.0,33,0.00,,,0.00,weatherlink.com 1.10,2013-03-04 17:26:00,
2013-03-04 11:41:00,63.1,33.0,29.88,SW,214,4.0,5.0,33,0.00,,,0.00,weatherlink.com 1.10,2013-03-04 17:41:00,
2013-03-04 11:56:00,64.5,33.0,29.87,NNE,18,3.0,6.0,31,0.00,,,0.00,weatherlink.com 1.10,2013-03-04 17:56:00,
2013-03-04 12:11:00,65.8,33.0,29.85,SSE,157,2.0,9.0,30,0.00,,,0.00,weatherlink.com 1.10,2013-03-04 18:11:00,
2013-03-04 12:26:00,67.0,32.0,29.84,SSW,212,1.0,7.0,27,0.00,,,0.00,weatherlink.com 1.10,2013-03-04 18:26:00,
2013-03-04 12:41:00,67.7,34.0,29.82,NNW,338,5.0,10.0,29,0.00,,,0.00,weatherlink.com 1.10,2013-03-04 18:41:00,
2013-03-04 12:56:00,68.9,33.0,29.82,SW,214,5.0,6.0,27,0.00,,,0.00,weatherlink.com 1.10,2013-03-04 18:56:00,
2013-03-04 13:11:00,69.4,34.0,29.81,NE,47,3.0,9.0,27,0.00,,,0.00,weatherlink.com 1.10,2013-03-04 19:11:00,
2013-03-04 13:26:00,69.5,34.0,29.79,SSE,147,2.0,6.0,27,0.00,,,0.00,weatherlink.com 1.10,2013-03-04 19:26:00,
2013-03-04 13:41:00,68.0,33.0,29.79,East,83,6.0,7.0,27,0.00,,,0.00,weatherlink.com 1.10,2013-03-04 19:41:00,
2013-03-04 13:56:00,68.9,33.0,29.79,SW,223,2.0,8.0,27,0.00,,,0.00,weatherlink.com 1.10,2013-03-04 19:56:00,
2013-03-04 14:11:00,69.4,34.0,29.77,South,173,2.0,6.0,27,0.00,,,0.00,weatherlink.com 1.10,2013-03-04 20:11:00,
2013-03-04 14:26:00,70.1,33.0,29.77,SW,222,3.0,5.0,25,0.00,,,0.00,weatherlink.com 1.10,2013-03-04 20:26:00,
2013-03-04 14:41:00,69.1,32.0,29.76,East,79,0.0,7.0,25,0.00,,,0.00,weatherlink.com 1.10,2013-03-04 20:41:00,
2013-03-04 14:56:00,67.9,33.0,29.77,SW,221,3.0,5.0,27,0.00,,,0.00,weatherlink.com 1.10,2013-03-04 20:56:00,
2013-03-04 15:11:00,66.5,33.0,29.77,SSW,210,1.0,13.0,29,0.00,,,0.00,weatherlink.com 1.10,2013-03-04 21:11:00,
2013-03-04 15:26:00,65.9,34.0,29.77,WSW,238,0.0,7.0,30,0.00,,,0.00,weatherlink.com 1.10,2013-03-04 21:26:00,
2013-03-04 15:41:00,66.0,34.0,29.77,SSW,209,1.0,6.0,30,0.00,,,0.00,weatherlink.com 1.10,2013-03-04 21:41:00,
2013-03-04 15:56:00,65.7,34.0,29.78,SW,231,1.0,6.0,31,0.00,,,0.00,weatherlink.com 1.10,2013-03-04 21:56:00,
2013-03-04 16:11:00,65.0,34.0,29.77,SW,228,0.0,4.0,32,0.00,,,0.00,weatherlink.com 1.10,2013-03-04 22:11:00,
2013-03-04 16:26:00,64.6,35.0,29.77,South,184,2.0,2.0,33,0.00,,,0.00,weatherlink.com 1.10,2013-03-04 22:26:00,
2013-03-04 16:41:00,64.5,35.0,29.77,SSW,196,0.0,3.0,34,0.00,,,0.00,weatherlink.com 1.10,2013-03-04 22:41:00,
2013-03-04 16:56:00,64.1,36.0,29.77,SSW,212,0.0,2.0,36,0.00,,,0.00,weatherlink.com 1.10,2013-03-04 22:56:00,
2013-03-04 17:11:00,63.7,36.0,29.77,South,175,0.0,6.0,36,0.00,,,0.00,weatherlink.com 1.10,2013-03-04 23:11:00,
2013-03-04 17:26:00,63.3,36.0,29.77,SE,139,0.0,1.0,37,0.00,,,0.00,weatherlink.com 1.10,2013-03-04 23:26:00,
2013-03-04 17:41:00,63.2,37.0,29.77,SSE,150,0.0,3.0,38,0.00,,,0.00,weatherlink.com 1.10,2013-03-04 23:41:00,
2013-03-04 17:56:00,62.7,38.0,29.77,SSE,164,0.0,2.0,40,0.00,,,0.00,weatherlink.com 1.10,2013-03-04 23:56:00,
2013-03-04 18:11:00,62.3,38.0,29.76,SSW,193,0.0,1.0,40,0.00,,,0.00,weatherlink.com 1.10,2013-03-05 00:11:00,
2013-03-04 18:26:00,61.9,37.0,29.76,South,169,0.0,3.0,40,0.00,,,0.00,weatherlink.com 1.10,2013-03-05 00:26:00,
2013-03-04 18:41:00,61.9,38.0,29.77,ESE,113,0.0,1.0,41,0.00,,,0.00,weatherlink.com 1.10,2013-03-05 00:41:00,
2013-03-04 18:56:00,61.6,38.0,29.77,ESE,115,0.0,1.0,42,0.00,,,0.00,weatherlink.com 1.10,2013-03-05 00:56:00,
2013-03-04 19:11:00,61.2,37.0,29.77,South,176,1.0,1.0,41,0.00,,,0.00,weatherlink.com 1.10,2013-03-05 01:11:00,
2013-03-04 19:26:00,61.4,38.0,29.77,SSE,160,0.0,4.0,42,0.00,,,0.00,weatherlink.com 1.10,2013-03-05 01:26:00,
2013-03-04 19:42:00,61.5,39.0,29.77,NNW,335,1.0,1.0,43,0.00,,,0.00,weatherlink.com 1.10,2013-03-05 01:42:00,
2013-03-04 19:57:00,61.8,39.0,29.77,WSW,250,0.0,2.0,44,0.00,,,0.00,weatherlink.com 1.10,2013-03-05 01:57:00,
2013-03-04 20:12:00,61.8,40.0,29.77,SSE,167,0.0,2.0,45,0.00,,,0.00,weatherlink.com 1.10,2013-03-05 02:12:00,
2013-03-04 20:27:00,62.0,40.0,29.77,SSW,207,1.0,3.0,45,0.00,,,0.00,weatherlink.com 1.10,2013-03-05 02:27:00,
2013-03-04 20:42:00,61.9,41.0,29.77,SSW,207,0.0,3.0,46,0.00,,,0.00,weatherlink.com 1.10,2013-03-05 02:42:00,
2013-03-04 20:57:00,61.7,42.0,29.76,SSW,203,0.0,3.0,48,0.00,,,0.00,weatherlink.com 1.10,2013-03-05 02:57:00,
2013-03-04 21:12:00,62.1,42.0,29.76,SSW,199,0.0,8.0,48,0.00,,,0.00,weatherlink.com 1.10,2013-03-05 03:12:00,
2013-03-04 21:27:00,61.8,43.0,29.77,SW,214,1.0,3.0,51,0.00,,,0.00,weatherlink.com 1.10,2013-03-05 03:27:00,
2013-03-04 21:42:00,61.7,44.0,29.77,WSW,245,1.0,3.0,53,0.00,,,0.00,weatherlink.com 1.10,2013-03-05 03:42:00,
2013-03-04 21:57:00,61.4,44.0,29.76,SSE,162,0.0,3.0,54,0.00,,,0.00,weatherlink.com 1.10,2013-03-05 03:57:00,
2013-03-04 22:12:00,61.4,44.0,29.76,SW,217,1.0,4.0,54,0.00,,,0.00,weatherlink.com 1.10,2013-03-05 04:12:00,
2013-03-04 22:27:00,61.4,45.0,29.76,SSW,212,1.0,4.0,56,0.00,,,0.00,weatherlink.com 1.10,2013-03-05 04:27:00,
2013-03-04 22:42:00,61.5,46.0,29.76,SW,219,0.0,5.0,57,0.00,,,0.00,weatherlink.com 1.10,2013-03-05 04:42:00,
2013-03-04 22:57:00,61.0,46.0,29.75,SW,214,1.0,5.0,59,0.00,,,0.00,weatherlink.com 1.10,2013-03-05 04:57:00,
2013-03-04 23:12:00,60.6,46.0,29.75,SSW,210,1.0,6.0,60,0.00,,,0.00,weatherlink.com 1.10,2013-03-05 05:12:00,
2013-03-04 23:27:00,60.0,47.0,29.75,SW,222,2.0,4.0,62,0.00,,,0.00,weatherlink.com 1.10,2013-03-05 05:27:00,
2013-03-04 23:42:00,59.5,47.0,29.75,SSW,197,3.0,4.0,64,0.00,,,0.00,weatherlink.com 1.10,2013-03-05 05:42:00,
2013-03-04 23:57:00,59.5,47.0,29.75,SW,227,0.0,5.0,64,0.00,,,0.00,weatherlink.com 1.10,2013-03-05 05:57:00,